CheckWX is a tool to help pilots better visualize weather data.  It is not intended as a substitute for an official pre-flight weather briefing.

06:43:43 UTC

EYVI TAF
Vilnius International Airport
Vilnius, Lithuania
TAF EYVI 031107Z 0312/0412 27020G30KT 9000 BKN025 TEMPO 0312/0318 5000 SHRASN SCT005 BKN015CB TEMPO 0318/0324 1500 SHRASN BKN005 BKN015CB PROB40 TEMPO 0318/0324 TS FM040000 27010G20KT TEMPO 0400/0406 BKN005

Apr-3@
12:00 UTC

Apr-3 @ 12:00 UTC

Apr-4@
00:00 UTC

Apr-4 @ 00:00 UTC

TAF EYVI 031107Z 0312/0412 27020G30KT 9000 BKN025

Expired

Wind
  • 270° at 20 KTS
  • {Gusting to 30 KTS
Cloud Levels
  • Broken at 2,500' AGL

Apr-3@
12:00 UTC

Apr-3 @ 12:00 UTC

Apr-3@
18:00 UTC

Apr-3 @ 18:00 UTC

TEMPO 0312/0318 5000 SHRASN SCT005 BKN015CB

Expired

Conditions
Showers, Rain, Showers, Snow
Cloud Levels
  • Scattered at 500' AGL
  • Broken at 1,500' AGL

Apr-3@
18:00 UTC

Apr-3 @ 18:00 UTC

Apr-4@
00:00 UTC

Apr-4 @ 00:00 UTC

TEMPO 0318/0324 1500 SHRASN BKN005 BKN015CB

Expired

Conditions
Showers, Rain, Showers, Snow
Cloud Levels
  • Broken at 500' AGL
  • Broken at 1,500' AGL

Apr-3@
18:00 UTC

Apr-3 @ 18:00 UTC

Apr-4@
00:00 UTC

Apr-4 @ 00:00 UTC

PROB40 TEMPO 0318/0324 TS

Expired

Conditions
Thunderstorm
Cloud Levels

Apr-4@
00:00 UTC

Apr-4 @ 00:00 UTC

Apr-4@
06:00 UTC

Apr-4 @ 06:00 UTC

TEMPO 0400/0406 BKN005

Expired

Cloud Levels
  • Broken at 500' AGL

Apr-4@
00:00 UTC

Apr-4 @ 00:00 UTC

Apr-4@
12:00 UTC

Apr-4 @ 12:00 UTC

FM040000 27010G20KT

From

From Standard forecast or significant change

Wind
  • 270° at 10 KTS
  • {Gusting to 20 KTS
Cloud Levels